Time,TemperatureF,DewpointF,PressureIn,WindDirection,WindDirectionDegrees,WindSpeedMPH,WindSpeedGustMPH,Humidity,HourlyPrecipIn,Conditions,Clouds,dailyrainin,SoftwareType,DateUTC
2013-05-27 00:05:00,60.1,51.0,30.17,SE,138,0.0,0.0,71,0.01,,,0.01,weatherlink.com 1.10,2013-05-27 04:05:00,
2013-05-27 00:20:00,59.1,52.0,30.16,SE,138,0.0,0.0,77,0.01,,,0.00,weatherlink.com 1.10,2013-05-27 04:20:00,
2013-05-27 00:35:00,58.8,52.0,30.15,East,89,0.0,0.0,78,0.01,,,0.00,weatherlink.com 1.10,2013-05-27 04:35:00,
2013-05-27 00:50:00,58.4,52.0,30.16,East,89,0.0,0.0,80,0.01,,,0.00,weatherlink.com 1.10,2013-05-27 04:50:00,
2013-05-27 01:05:00,57.9,52.0,30.16,East,89,0.0,0.0,82,0.00,,,0.00,weatherlink.com 1.10,2013-05-27 05:05:00,
2013-05-27 01:20:00,57.8,52.0,30.15,SE,127,0.0,0.0,82,0.00,,,0.00,weatherlink.com 1.10,2013-05-27 05:20:00,
2013-05-27 01:35:00,58.2,52.0,30.14,ESE,103,0.0,2.0,79,0.00,,,0.00,weatherlink.com 1.10,2013-05-27 05:35:00,
2013-05-27 01:50:00,58.3,51.0,30.14,ESE,105,0.0,2.0,78,0.00,,,0.00,weatherlink.com 1.10,2013-05-27 05:50:00,
2013-05-27 02:05:00,58.3,50.0,30.14,East,81,4.0,7.0,75,0.00,,,0.00,weatherlink.com 1.10,2013-05-27 06:05:00,
2013-05-27 02:20:00,58.7,50.0,30.14,ESE,119,2.0,3.0,74,0.00,,,0.00,weatherlink.com 1.10,2013-05-27 06:20:00,
2013-05-27 02:36:00,58.8,50.0,30.13,East,81,1.0,6.0,73,0.00,,,0.00,weatherlink.com 1.10,2013-05-27 06:36:00,
2013-05-27 02:51:00,58.9,49.0,30.12,ENE,68,1.0,5.0,71,0.00,,,0.00,weatherlink.com 1.10,2013-05-27 06:51:00,
2013-05-27 03:06:00,59.0,50.0,30.12,SSE,165,1.0,4.0,71,0.00,,,0.00,weatherlink.com 1.10,2013-05-27 07:06:00,
2013-05-27 03:21:00,58.9,50.0,30.13,ESE,111,1.0,6.0,73,0.00,,,0.00,weatherlink.com 1.10,2013-05-27 07:21:00,
2013-05-27 03:36:00,58.9,50.0,30.12,ESE,103,2.0,6.0,73,0.00,,,0.00,weatherlink.com 1.10,2013-05-27 07:36:00,
2013-05-27 03:51:00,58.6,51.0,30.12,East,84,2.0,5.0,76,0.00,,,0.00,weatherlink.com 1.10,2013-05-27 07:51:00,
2013-05-27 04:06:00,57.7,52.0,30.14,ESE,118,0.0,3.0,81,0.02,,,0.02,weatherlink.com 1.10,2013-05-27 08:06:00,
2013-05-27 04:21:00,56.5,52.0,30.13,ENE,63,0.0,3.0,85,0.04,,,0.04,weatherlink.com 1.10,2013-05-27 08:21:00,
2013-05-27 04:36:00,55.7,52.0,30.14,ENE,73,1.0,7.0,87,0.08,,,0.08,weatherlink.com 1.10,2013-05-27 08:36:00,
2013-05-27 04:51:00,54.9,52.0,30.14,ENE,75,1.0,4.0,89,0.13,,,0.13,weatherlink.com 1.10,2013-05-27 08:51:00,
2013-05-27 05:06:00,54.4,52.0,30.14,ENE,72,2.0,3.0,90,0.13,,,0.15,weatherlink.com 1.10,2013-05-27 09:06:00,
2013-05-27 05:21:00,54.0,52.0,30.13,ENE,57,1.0,4.0,92,0.14,,,0.18,weatherlink.com 1.10,2013-05-27 09:21:00,
2013-05-27 05:36:00,53.7,52.0,30.12,East,81,2.0,6.0,93,0.19,,,0.27,weatherlink.com 1.10,2013-05-27 09:36:00,
2013-05-27 05:51:00,53.6,52.0,30.12,East,97,2.0,7.0,94,0.26,,,0.39,weatherlink.com 1.10,2013-05-27 09:51:00,
2013-05-27 06:06:00,53.5,52.0,30.13,SE,124,2.0,6.0,94,0.37,,,0.52,weatherlink.com 1.10,2013-05-27 10:06:00,
2013-05-27 06:21:00,53.6,52.0,30.11,ESE,107,0.0,9.0,94,0.37,,,0.55,weatherlink.com 1.10,2013-05-27 10:21:00,
2013-05-27 06:36:00,53.6,52.0,30.12,ENE,69,1.0,8.0,94,0.30,,,0.57,weatherlink.com 1.10,2013-05-27 10:36:00,
2013-05-27 06:51:00,53.7,52.0,30.12,East,98,5.0,8.0,94,0.17,,,0.57,weatherlink.com 1.10,2013-05-27 10:51:00,
2013-05-27 07:06:00,53.8,52.0,30.12,NE,49,8.0,8.0,94,0.05,,,0.57,weatherlink.com 1.10,2013-05-27 11:06:00,
2013-05-27 07:21:00,53.9,52.0,30.13,ENE,67,1.0,5.0,93,0.03,,,0.58,weatherlink.com 1.10,2013-05-27 11:21:00,
2013-05-27 07:36:00,53.9,52.0,30.14,ESE,117,1.0,6.0,93,0.01,,,0.58,weatherlink.com 1.10,2013-05-27 11:36:00,
2013-05-27 07:51:00,53.9,52.0,30.13,ENE,69,2.0,4.0,93,0.01,,,0.58,weatherlink.com 1.10,2013-05-27 11:51:00,
2013-05-27 08:06:00,53.9,52.0,30.12,ENE,59,5.0,5.0,93,0.01,,,0.58,weatherlink.com 1.10,2013-05-27 12:06:00,
2013-05-27 08:21:00,54.1,52.0,30.11,NNE,30,3.0,8.0,93,0.00,,,0.58,weatherlink.com 1.10,2013-05-27 12:21:00,
2013-05-27 08:36:00,54.7,53.0,30.10,ESE,121,3.0,7.0,92,0.00,,,0.58,weatherlink.com 1.10,2013-05-27 12:36:00,
2013-05-27 08:51:00,55.3,53.0,30.09,ENE,67,6.0,15.0,90,0.01,,,0.59,weatherlink.com 1.10,2013-05-27 12:51:00,
2013-05-27 09:06:00,56.1,53.0,30.09,East,79,3.0,9.0,89,0.01,,,0.59,weatherlink.com 1.10,2013-05-27 13:06:00,
2013-05-27 09:21:00,57.4,54.0,30.09,SE,127,3.0,10.0,87,0.01,,,0.59,weatherlink.com 1.10,2013-05-27 13:21:00,
2013-05-27 09:36:00,59.1,54.0,30.08,SW,222,3.0,12.0,84,0.01,,,0.59,weatherlink.com 1.10,2013-05-27 13:36:00,
2013-05-27 09:51:00,59.2,54.0,30.09,East,79,3.0,14.0,84,0.00,,,0.59,weatherlink.com 1.10,2013-05-27 13:51:00,
2013-05-27 10:06:00,61.4,55.0,30.08,East,79,12.0,12.0,79,0.00,,,0.59,weatherlink.com 1.10,2013-05-27 14:06:00,
2013-05-27 10:21:00,61.1,55.0,30.07,ESE,102,6.0,16.0,80,0.00,,,0.59,weatherlink.com 1.10,2013-05-27 14:21:00,
2013-05-27 10:36:00,62.2,56.0,30.07,ENE,67,5.0,10.0,81,0.00,,,0.59,weatherlink.com 1.10,2013-05-27 14:36:00,
2013-05-27 10:51:00,61.3,55.0,30.05,SSE,163,7.0,13.0,79,0.00,,,0.59,weatherlink.com 1.10,2013-05-27 14:51:00,
2013-05-27 11:06:00,61.3,55.0,30.05,SSE,165,3.0,7.0,80,0.00,,,0.59,weatherlink.com 1.10,2013-05-27 15:06:00,
2013-05-27 11:21:00,61.6,55.0,30.05,ENE,66,3.0,8.0,80,0.00,,,0.59,weatherlink.com 1.10,2013-05-27 15:21:00,
2013-05-27 11:37:00,61.7,56.0,30.04,East,101,2.0,6.0,80,0.00,,,0.59,weatherlink.com 1.10,2013-05-27 15:37:00,
2013-05-27 11:52:00,61.9,55.0,30.03,SE,127,2.0,10.0,79,0.00,,,0.59,weatherlink.com 1.10,2013-05-27 15:52:00,
2013-05-27 12:07:00,62.7,56.0,30.02,ESE,102,2.0,11.0,79,0.00,,,0.59,weatherlink.com 1.10,2013-05-27 16:07:00,
2013-05-27 12:22:00,64.6,57.0,30.01,East,90,1.0,10.0,77,0.00,,,0.59,weatherlink.com 1.10,2013-05-27 16:22:00,
2013-05-27 12:37:00,65.5,58.0,30.01,ESE,104,2.0,9.0,77,0.00,,,0.59,weatherlink.com 1.10,2013-05-27 16:37:00,
2013-05-27 12:52:00,66.5,58.0,30.02,SE,134,7.0,8.0,75,0.00,,,0.59,weatherlink.com 1.10,2013-05-27 16:52:00,
2013-05-27 13:07:00,67.5,59.0,30.00,East,97,4.0,9.0,75,0.00,,,0.59,weatherlink.com 1.10,2013-05-27 17:07:00,
2013-05-27 13:22:00,67.9,59.0,30.00,ESE,120,6.0,8.0,74,0.00,,,0.59,weatherlink.com 1.10,2013-05-27 17:22:00,
2013-05-27 13:37:00,68.9,60.0,30.00,SE,131,5.0,10.0,72,0.00,,,0.59,weatherlink.com 1.10,2013-05-27 17:37:00,
2013-05-27 13:52:00,70.3,61.0,29.99,ESE,118,2.0,11.0,72,0.00,,,0.59,weatherlink.com 1.10,2013-05-27 17:52:00,
2013-05-27 14:07:00,70.5,61.0,29.99,East,96,4.0,11.0,72,0.00,,,0.59,weatherlink.com 1.10,2013-05-27 18:07:00,
2013-05-27 14:22:00,70.6,61.0,29.98,ESE,122,3.0,5.0,72,0.00,,,0.59,weatherlink.com 1.10,2013-05-27 18:22:00,
2013-05-27 14:37:00,70.5,61.0,29.98,ESE,121,1.0,9.0,73,0.00,,,0.59,weatherlink.com 1.10,2013-05-27 18:37:00,
2013-05-27 14:52:00,70.5,62.0,29.98,East,89,1.0,6.0,74,0.00,,,0.59,weatherlink.com 1.10,2013-05-27 18:52:00,
2013-05-27 15:07:00,72.1,63.0,29.97,ENE,69,1.0,6.0,74,0.00,,,0.59,weatherlink.com 1.10,2013-05-27 19:07:00,
2013-05-27 15:22:00,74.6,65.0,29.96,SE,139,1.0,10.0,71,0.00,,,0.59,weatherlink.com 1.10,2013-05-27 19:22:00,
2013-05-27 15:37:00,77.5,67.0,29.95,SSE,165,4.0,7.0,69,0.00,,,0.59,weatherlink.com 1.10,2013-05-27 19:37:00,
2013-05-27 15:52:00,77.8,66.0,29.95,East,81,1.0,6.0,68,0.00,,,0.59,weatherlink.com 1.10,2013-05-27 19:52:00,
2013-05-27 16:07:00,77.6,66.0,29.93,South,188,3.0,6.0,68,0.00,,,0.59,weatherlink.com 1.10,2013-05-27 20:07:00,
2013-05-27 16:22:00,77.4,66.0,29.92,ENE,58,3.0,6.0,67,0.00,,,0.59,weatherlink.com 1.10,2013-05-27 20:22:00,
2013-05-27 16:38:00,77.9,66.0,29.91,West,276,3.0,7.0,67,0.00,,,0.59,weatherlink.com 1.10,2013-05-27 20:38:00,
2013-05-27 16:53:00,77.4,65.0,29.89,ESE,105,2.0,8.0,66,0.00,,,0.59,weatherlink.com 1.10,2013-05-27 20:53:00,
2013-05-27 17:08:00,77.5,66.0,29.89,WNW,298,3.0,5.0,67,0.00,,,0.59,weatherlink.com 1.10,2013-05-27 21:08:00,
2013-05-27 17:23:00,77.6,65.0,29.88,SSE,158,3.0,7.0,66,0.00,,,0.59,weatherlink.com 1.10,2013-05-27 21:23:00,
2013-05-27 17:38:00,77.3,66.0,29.87,ENE,69,1.0,6.0,68,0.00,,,0.59,weatherlink.com 1.10,2013-05-27 21:38:00,
2013-05-27 17:53:00,76.2,66.0,29.88,SW,221,2.0,7.0,70,0.00,,,0.59,weatherlink.com 1.10,2013-05-27 21:53:00,
2013-05-27 18:08:00,71.8,66.0,29.88,WSW,253,3.0,3.0,81,0.01,,,0.60,weatherlink.com 1.10,2013-05-27 22:08:00,
2013-05-27 18:23:00,65.8,64.0,29.88,SSE,152,0.0,12.0,92,0.13,,,0.72,weatherlink.com 1.10,2013-05-27 22:23:00,
2013-05-27 18:38:00,66.7,65.0,29.88,West,269,0.0,1.0,95,0.13,,,0.72,weatherlink.com 1.10,2013-05-27 22:38:00,
2013-05-27 18:53:00,67.1,65.0,29.89,SE,142,1.0,5.0,94,0.15,,,0.74,weatherlink.com 1.10,2013-05-27 22:53:00,
2013-05-27 19:08:00,67.1,66.0,29.89,SE,146,0.0,1.0,95,0.19,,,0.79,weatherlink.com 1.10,2013-05-27 23:08:00,
2013-05-27 19:23:00,67.2,66.0,29.88,SSE,147,0.0,0.0,95,0.07,,,0.79,weatherlink.com 1.10,2013-05-27 23:23:00,
2013-05-27 19:38:00,67.3,66.0,29.89,SSE,147,0.0,0.0,96,0.07,,,0.79,weatherlink.com 1.10,2013-05-27 23:38:00,
2013-05-27 19:53:00,67.4,66.0,29.89,SE,146,0.0,0.0,96,0.09,,,0.83,weatherlink.com 1.10,2013-05-27 23:53:00,
2013-05-27 20:08:00,67.3,66.0,29.88,SE,143,0.0,1.0,96,0.07,,,0.86,weatherlink.com 1.10,2013-05-28 00:08:00,
2013-05-27 20:23:00,67.1,66.0,29.88,ESE,110,0.0,1.0,96,0.13,,,0.92,weatherlink.com 1.10,2013-05-28 00:23:00,
2013-05-27 20:38:00,67.0,66.0,29.87,East,86,1.0,3.0,97,0.22,,,1.01,weatherlink.com 1.10,2013-05-28 00:38:00,
2013-05-27 20:53:00,66.9,66.0,29.88,NNE,22,1.0,2.0,97,0.21,,,1.04,weatherlink.com 1.10,2013-05-28 00:53:00,
2013-05-27 21:08:00,65.7,64.0,29.91,WNW,293,4.0,16.0,95,0.17,,,1.04,weatherlink.com 1.10,2013-05-28 01:08:00,
2013-05-27 21:23:00,65.0,64.0,29.91,NE,43,0.0,10.0,96,0.24,,,1.16,weatherlink.com 1.10,2013-05-28 01:23:00,
2013-05-27 21:38:00,64.9,64.0,29.90,SE,145,0.0,1.0,96,0.16,,,1.17,weatherlink.com 1.10,2013-05-28 01:38:00,
2013-05-27 21:53:00,64.9,64.0,29.89,SE,145,0.0,1.0,97,0.14,,,1.18,weatherlink.com 1.10,2013-05-28 01:53:00,
2013-05-27 22:08:00,64.9,64.0,29.89,SE,145,0.0,1.0,97,0.14,,,1.18,weatherlink.com 1.10,2013-05-28 02:08:00,
2013-05-27 22:23:00,64.7,64.0,29.87,East,97,0.0,2.0,97,0.02,,,1.18,weatherlink.com 1.10,2013-05-28 02:23:00,
2013-05-27 22:38:00,64.7,64.0,29.89,East,89,0.0,1.0,97,0.01,,,1.18,weatherlink.com 1.10,2013-05-28 02:38:00,
2013-05-27 22:54:00,64.6,64.0,29.89,East,89,0.0,1.0,97,0.00,,,1.18,weatherlink.com 1.10,2013-05-28 02:54:00,
2013-05-27 23:08:00,64.5,64.0,29.88,NNE,27,1.0,3.0,97,0.00,,,1.18,weatherlink.com 1.10,2013-05-28 03:08:00,
2013-05-27 23:23:00,64.5,64.0,29.88,East,90,2.0,5.0,97,0.00,,,1.18,weatherlink.com 1.10,2013-05-28 03:23:00,
2013-05-27 23:38:00,64.3,64.0,29.89,SSE,156,0.0,3.0,97,0.00,,,1.18,weatherlink.com 1.10,2013-05-28 03:38:00,
2013-05-27 23:53:00,64.0,63.0,29.90,ESE,114,0.0,1.0,97,0.00,,,1.18,weatherlink.com 1.10,2013-05-28 03:53:00,